Address 0xc0b9cbea31b1bf92b6689bc4a9793abe95682ec1 6

 
 
Txn Hash Method
Block
From
To
Value [Txn Fee]
0xc5ed4ae882ac64bcaafa5ff0af8ed0a370ab006e3f6834447f1d947aa2970823Stake232617842022-01-02 12:53:05275 days 10 hrs ago0xc0b9cbea31b1bf92b6689bc4a9793abe95682ec1OUT 0x29353bb4c9010c6112a77d702ac890e70cd73d530 MATIC0.0042067830
0xa73c68bbd0a62c72a88ca676e25981e8e19bb2f164d07769678788b0be70350dApprove232617502022-01-02 12:51:53275 days 10 hrs ago0xc0b9cbea31b1bf92b6689bc4a9793abe95682ec1OUT Stability: PROFIT Token0 MATIC0.00149075232
0x57151d4e32e83c4b6c6115e499fec1770fa3819402aded1bf87d96e10e756bd9Transfer232617502022-01-02 12:51:53275 days 10 hrs ago0xc0b9cbea31b1bf92b6689bc4a9793abe95682ec1SELF0xc0b9cbea31b1bf92b6689bc4a9793abe95682ec10.001 MATIC0.00651310
0xe47848dfff5f257cf2b61c5e5e5c9a03c7d96ffe4a7f01426762b996b5bddfebMulticall232362162022-01-01 21:23:02276 days 1 hr ago0xc0b9cbea31b1bf92b6689bc4a9793abe95682ec1OUTUniswap V3: Router 240 MATIC0.0608265300
0x4558f57474b5ccbe64bcb59355b62f933005ff66c381fbe7b0b007f14cace238Transfer205191962021-10-23 10:40:16346 days 12 hrs ago0x33a28d7a0c94599edb670fcce5dfa9d4c072314e IN 0xc0b9cbea31b1bf92b6689bc4a9793abe95682ec150.3377943 MATIC0.0010550
0x81cf9148a4c88d561c0831a0146c636acbd410bc6bca67e158340afdb243d88eTransfer205177052021-10-23 9:39:31346 days 13 hrs ago0xc0b9cbea31b1bf92b6689bc4a9793abe95682ec1OUT0xe962b8ce66bfbdc884f93a68e1c6d0a000eee019813.747452858018797 MATIC0.0006330
0xc44b06a740b7f45d4945671297cae964ca046ad18d2d2a1ee779bb8a6db2701aSwap Exact Token...205173632021-10-23 9:23:03346 days 13 hrs ago0xc0b9cbea31b1bf92b6689bc4a9793abe95682ec1OUT SushiSwap: Router0 MATIC0.00416328535.000000001
0x8c2d5d81043b83039e8c89156d1c45ed7dfdd6bdf0eab62905dde5fbd744fae5Stake203767922021-10-19 10:25:30350 days 12 hrs ago0xc0b9cbea31b1bf92b6689bc4a9793abe95682ec1OUT KlimaDAO: Staking0 MATIC0.0036827430
0x17bd3488bd5c641aaf97f82ead8d4d73a009d5af89c0865d5fa9a398b4aa09a3Swap Exact Token...203767792021-10-19 10:24:38350 days 12 hrs ago0xc0b9cbea31b1bf92b6689bc4a9793abe95682ec1OUT SushiSwap: Router0 MATIC0.0055809330
0x568aa2710651af4c0a005ad71340ec33ff1ec04ae37df5bf30896960cb8940dbApprove203766142021-10-19 10:18:32350 days 12 hrs ago0xc0b9cbea31b1bf92b6689bc4a9793abe95682ec1OUT KlimaDAO: KLIMA Token0 MATIC0.0001385733
0x74504666373f4682b596f3aa3ff0932d543983bd858645adb379875cf2620130Swap Exact Token...203763782021-10-19 10:10:24350 days 12 hrs ago0xc0b9cbea31b1bf92b6689bc4a9793abe95682ec1OUT SushiSwap: Router0 MATIC0.0055809330
0xd4d93af552b13d2d963b5f43d441914aec70f9a3a6e02100f6413c5ebd8f1f4aApprove203594092021-10-18 22:27:22351 days 36 mins ago0xc0b9cbea31b1bf92b6689bc4a9793abe95682ec1OUT KlimaDAO: KLIMA Token0 MATIC0.0266031,000
0x46341753aacbe276bff2363abece9a8712cf637d575b1b90829c6a064931cd00Approve203594092021-10-18 22:27:22351 days 36 mins ago0xc0b9cbea31b1bf92b6689bc4a9793abe95682ec1OUT KlimaDAO: KLIMA Token0 MATIC0.0266031,000
0x1deca761fb55bb5f20e8f8daae287ab084ef17a68ead90103bf8a051037417baApprove203594092021-10-18 22:27:22351 days 36 mins ago0xc0b9cbea31b1bf92b6689bc4a9793abe95682ec1OUT KlimaDAO: KLIMA Token0 MATIC0.0079809300
0xdb2a0d633ce18e54e206095ecb279dc75b4e2b5d28072209c34e7a5a3e3da9b9Approve203594082021-10-18 22:27:20351 days 36 mins ago0xc0b9cbea31b1bf92b6689bc4a9793abe95682ec1OUT KlimaDAO: KLIMA Token0 MATIC0.0053206200
0x8cacbf3aa42199607e3583b60ed5875c2abfaa5b27bcaaa222c3f462da3a8a10Approve203594082021-10-18 22:27:20351 days 36 mins ago0xc0b9cbea31b1bf92b6689bc4a9793abe95682ec1OUT KlimaDAO: KLIMA Token0 MATIC0.00290632124262.4975
0xe074a1cedade278f9ca4990e8cbb1e75fd7946daa706f47154007f59257f6dacSwap Exact Token...203584642021-10-18 21:40:08351 days 1 hr ago0xc0b9cbea31b1bf92b6689bc4a9793abe95682ec1OUT SushiSwap: Router0 MATIC0.0368608200
0x251d8f3d0c11c19cdd4344e939fba4fb565d04f28421bb5f8a728c7ba3b777e4Swap Exact Token...203456392021-10-18 11:48:39351 days 11 hrs ago0xc0b9cbea31b1bf92b6689bc4a9793abe95682ec1OUT SushiSwap: Router0 MATIC0.0267854200
0x86029fc75bc3dee154cc27b5dcab62c5e746a28d75872326d011eb6adb9d5595Swap Exact ETH F...203454542021-10-18 11:41:53351 days 11 hrs ago0xc0b9cbea31b1bf92b6689bc4a9793abe95682ec1OUT SushiSwap: Router1,210.973120759714349 MATIC0.0036544830
0x08b58dbaee1be470dd43f8097f2a0ce5ad4569fb4f2887cd1fa486628964f630Swap Exact Token...203453972021-10-18 11:39:13351 days 11 hrs ago0xc0b9cbea31b1bf92b6689bc4a9793abe95682ec1OUT SushiSwap: Router0 MATIC0.0032510130
0x24738eaae38ffb24056dc6ab602f13c917b6b8dc6d87dba3be01575ff4c8bd62Approve203453742021-10-18 11:36:55351 days 11 hrs ago0xc0b9cbea31b1bf92b6689bc4a9793abe95682ec1OUT USD Coin0 MATIC0.0017533830
0x72dbae82e226e75c19258c0dfcda624881a02a7da5bc457ca7e3871f02f25f76Swap Exact ETH F...203453582021-10-18 11:35:19351 days 11 hrs ago0xc0b9cbea31b1bf92b6689bc4a9793abe95682ec1OUT SushiSwap: Router1 MATIC0.0036541230
0x0351852ea66316e831037c157db412a18f539857802f2781b9f389173766a274Transfer203411922021-10-18 8:47:04351 days 14 hrs ago0x33a28d7a0c94599edb670fcce5dfa9d4c072314e IN 0xc0b9cbea31b1bf92b6689bc4a9793abe95682ec11,199 MATIC0.000934544.5
0x7d7300dd7931f4f175d28215b72a4c89e73ed62f2570242e98138c38df73cedfSwap Exact ETH F...203411332021-10-18 8:45:02351 days 14 hrs ago0xc0b9cbea31b1bf92b6689bc4a9793abe95682ec1OUT SushiSwap: Router2 MATIC0.0034740630
0x62358480966b9ec566100b7d0e1cdcf204ebc960465ee65fdc1c9814f10cb49dTransfer203410022021-10-18 8:40:32351 days 14 hrs ago0x33a28d7a0c94599edb670fcce5dfa9d4c072314e IN 0xc0b9cbea31b1bf92b6689bc4a9793abe95682ec140 MATIC0.000934544.5
[ Download CSV Export 
Latest 3 internal transactions
Parent Txn Hash Block From To Value
0xc44b06a740b7f45d4945671297cae964ca046ad18d2d2a1ee779bb8a6db2701a205173632021-10-23 9:23:03346 days 13 hrs ago SushiSwap: Router0xc0b9cbea31b1bf92b6689bc4a9793abe95682ec1787.23197288917029734 MATIC
0x251d8f3d0c11c19cdd4344e939fba4fb565d04f28421bb5f8a728c7ba3b777e4203456392021-10-18 11:48:39351 days 11 hrs ago SushiSwap: Router0xc0b9cbea31b1bf92b6689bc4a9793abe95682ec10.661970928091119049 MATIC
0x08b58dbaee1be470dd43f8097f2a0ce5ad4569fb4f2887cd1fa486628964f630203453972021-10-18 11:39:13351 days 11 hrs ago SushiSwap: Router0xc0b9cbea31b1bf92b6689bc4a9793abe95682ec10.995253329714349855 MATIC
[ Download CSV Export 
Loading

Contract Name:
0 MATIC

Compiler Version
0

Optimization Enabled:
0 MATIC

Other Settings:
-NA-
Block Transaction Gas Used Reward
Age Block Fee Address BC Fee Address Voting Power Jailed Incoming
Block Uncle Number Difficulty Gas Used Reward
Loading
Loading
Make sure to use the "Vote Down" button for any spammy posts, and the "Vote Up" for interesting conversations.